sensor_id;sensor_type;location;lat;lon;timestamp;P1;durP1;ratioP1;P2;durP2;ratioP2
5559;SDS011;2803;47.916;8.074;2023-07-24T00:02:37;13.13;;;7.30;;
5559;SDS011;2803;47.916;8.074;2023-07-24T00:05:23;13.73;;;7.97;;
5559;SDS011;2803;47.916;8.074;2023-07-24T00:08:05;20.27;;;8.60;;
5559;SDS011;2803;47.916;8.074;2023-07-24T00:10:50;13.73;;;7.50;;
5559;SDS011;2803;47.916;8.074;2023-07-24T00:13:32;15.80;;;6.50;;
5559;SDS011;2803;47.916;8.074;2023-07-24T00:19:04;16.43;;;7.63;;
5559;SDS011;2803;47.916;8.074;2023-07-24T00:21:49;14.33;;;7.43;;
5559;SDS011;2803;47.916;8.074;2023-07-24T00:24:34;13.40;;;7.60;;
5559;SDS011;2803;47.916;8.074;2023-07-24T00:27:16;14.43;;;7.43;;
5559;SDS011;2803;47.916;8.074;2023-07-24T00:30:01;16.30;;;7.53;;
5559;SDS011;2803;47.916;8.074;2023-07-24T00:32:45;14.37;;;7.60;;
5559;SDS011;2803;47.916;8.074;2023-07-24T00:35:28;13.57;;;8.00;;
5559;SDS011;2803;47.916;8.074;2023-07-24T00:38:13;16.57;;;7.73;;
5559;SDS011;2803;47.916;8.074;2023-07-24T00:40:58;15.50;;;8.60;;
5559;SDS011;2803;47.916;8.074;2023-07-24T00:43:43;17.70;;;8.37;;
5559;SDS011;2803;47.916;8.074;2023-07-24T00:46:25;14.60;;;8.40;;
5559;SDS011;2803;47.916;8.074;2023-07-24T00:51:57;15.73;;;8.57;;
5559;SDS011;2803;47.916;8.074;2023-07-24T00:54:42;19.53;;;10.10;;
5559;SDS011;2803;47.916;8.074;2023-07-24T00:57:26;16.17;;;8.43;;
5559;SDS011;2803;47.916;8.074;2023-07-24T01:00:11;15.03;;;8.27;;
5559;SDS011;2803;47.916;8.074;2023-07-24T01:02:53;17.93;;;8.60;;
5559;SDS011;2803;47.916;8.074;2023-07-24T01:05:40;12.70;;;7.43;;
5559;SDS011;2803;47.916;8.074;2023-07-24T01:08:23;14.10;;;8.20;;
5559;SDS011;2803;47.916;8.074;2023-07-24T01:11:08;12.00;;;6.90;;
5559;SDS011;2803;47.916;8.074;2023-07-24T01:13:51;16.90;;;7.73;;
5559;SDS011;2803;47.916;8.074;2023-07-24T01:16:38;14.73;;;7.90;;
5559;SDS011;2803;47.916;8.074;2023-07-24T01:19:22;14.53;;;7.93;;
5559;SDS011;2803;47.916;8.074;2023-07-24T01:22:10;16.80;;;9.40;;
5559;SDS011;2803;47.916;8.074;2023-07-24T01:24:59;14.10;;;8.20;;
5559;SDS011;2803;47.916;8.074;2023-07-24T01:27:41;17.20;;;7.90;;
5559;SDS011;2803;47.916;8.074;2023-07-24T01:30:17;15.77;;;8.47;;
5559;SDS011;2803;47.916;8.074;2023-07-24T01:33:03;15.17;;;8.63;;
5559;SDS011;2803;47.916;8.074;2023-07-24T01:35:45;17.20;;;9.13;;
5559;SDS011;2803;47.916;8.074;2023-07-24T01:38:34;19.37;;;8.20;;
5559;SDS011;2803;47.916;8.074;2023-07-24T01:41:16;22.60;;;9.27;;
5559;SDS011;2803;47.916;8.074;2023-07-24T01:44:02;18.03;;;8.30;;
5559;SDS011;2803;47.916;8.074;2023-07-24T01:46:46;18.17;;;8.40;;
5559;SDS011;2803;47.916;8.074;2023-07-24T01:49:31;13.77;;;8.13;;
5559;SDS011;2803;47.916;8.074;2023-07-24T01:52:16;15.67;;;9.00;;
5559;SDS011;2803;47.916;8.074;2023-07-24T01:54:58;15.67;;;8.60;;
5559;SDS011;2803;47.916;8.074;2023-07-24T02:00:26;14.27;;;8.30;;
5559;SDS011;2803;47.916;8.074;2023-07-24T02:03:11;14.73;;;8.43;;
5559;SDS011;2803;47.916;8.074;2023-07-24T02:05:56;15.93;;;8.37;;
5559;SDS011;2803;47.916;8.074;2023-07-24T02:08:41;15.20;;;8.53;;
5559;SDS011;2803;47.916;8.074;2023-07-24T02:11:25;18.93;;;8.40;;
5559;SDS011;2803;47.916;8.074;2023-07-24T02:14:07;17.93;;;9.27;;
5559;SDS011;2803;47.916;8.074;2023-07-24T02:16:54;14.77;;;8.47;;
5559;SDS011;2803;47.916;8.074;2023-07-24T02:19:39;15.13;;;8.20;;
5559;SDS011;2803;47.916;8.074;2023-07-24T02:22:24;14.40;;;8.83;;
5559;SDS011;2803;47.916;8.074;2023-07-24T02:25:06;16.80;;;8.50;;
5559;SDS011;2803;47.916;8.074;2023-07-24T02:30:37;15.70;;;8.20;;
5559;SDS011;2803;47.916;8.074;2023-07-24T02:33:21;18.33;;;8.00;;
5559;SDS011;2803;47.916;8.074;2023-07-24T02:36:06;19.13;;;7.60;;
5559;SDS011;2803;47.916;8.074;2023-07-24T02:38:48;16.37;;;8.13;;
5559;SDS011;2803;47.916;8.074;2023-07-24T02:41:33;15.63;;;7.77;;
5559;SDS011;2803;47.916;8.074;2023-07-24T02:44:18;12.30;;;7.40;;
5559;SDS011;2803;47.916;8.074;2023-07-24T02:47:03;16.57;;;8.57;;
5559;SDS011;2803;47.916;8.074;2023-07-24T02:49:47;20.20;;;8.43;;
5559;SDS011;2803;47.916;8.074;2023-07-24T02:52:29;17.63;;;9.33;;
5559;SDS011;2803;47.916;8.074;2023-07-24T02:55:14;15.43;;;7.90;;
5559;SDS011;2803;47.916;8.074;2023-07-24T02:57:59;16.93;;;9.20;;
5559;SDS011;2803;47.916;8.074;2023-07-24T03:00:44;21.10;;;8.33;;
5559;SDS011;2803;47.916;8.074;2023-07-24T03:03:29;16.57;;;9.20;;
5559;SDS011;2803;47.916;8.074;2023-07-24T03:06:15;15.13;;;8.57;;
5559;SDS011;2803;47.916;8.074;2023-07-24T03:08:57;17.90;;;8.17;;
5559;SDS011;2803;47.916;8.074;2023-07-24T03:11:42;15.10;;;8.37;;
5559;SDS011;2803;47.916;8.074;2023-07-24T03:14:27;19.67;;;8.07;;
5559;SDS011;2803;47.916;8.074;2023-07-24T03:17:12;14.87;;;8.17;;
5559;SDS011;2803;47.916;8.074;2023-07-24T03:19:54;17.20;;;8.70;;
5559;SDS011;2803;47.916;8.074;2023-07-24T03:22:41;13.00;;;7.73;;
5559;SDS011;2803;47.916;8.074;2023-07-24T03:25:26;14.53;;;8.23;;
5559;SDS011;2803;47.916;8.074;2023-07-24T03:28:09;14.90;;;8.60;;
5559;SDS011;2803;47.916;8.074;2023-07-24T03:30:54;14.13;;;8.03;;
5559;SDS011;2803;47.916;8.074;2023-07-24T03:33:39;11.40;;;7.63;;
5559;SDS011;2803;47.916;8.074;2023-07-24T03:36:21;14.33;;;8.40;;
5559;SDS011;2803;47.916;8.074;2023-07-24T03:39:08;12.77;;;7.80;;
5559;SDS011;2803;47.916;8.074;2023-07-24T03:41:51;14.53;;;7.43;;
5559;SDS011;2803;47.916;8.074;2023-07-24T03:44:33;15.40;;;7.90;;
5559;SDS011;2803;47.916;8.074;2023-07-24T03:47:18;17.30;;;7.60;;
5559;SDS011;2803;47.916;8.074;2023-07-24T03:50:03;14.50;;;7.63;;
5559;SDS011;2803;47.916;8.074;2023-07-24T03:52:48;15.67;;;7.70;;
5559;SDS011;2803;47.916;8.074;2023-07-24T03:55:34;15.13;;;7.30;;
5559;SDS011;2803;47.916;8.074;2023-07-24T03:58:16;12.60;;;7.07;;
5559;SDS011;2803;47.916;8.074;2023-07-24T04:01:01;17.60;;;7.60;;
5559;SDS011;2803;47.916;8.074;2023-07-24T04:03:43;13.53;;;8.00;;
5559;SDS011;2803;47.916;8.074;2023-07-24T04:09:13;12.90;;;7.27;;
5559;SDS011;2803;47.916;8.074;2023-07-24T04:12:00;13.60;;;7.63;;
5559;SDS011;2803;47.916;8.074;2023-07-24T04:14:42;13.20;;;7.03;;
5559;SDS011;2803;47.916;8.074;2023-07-24T04:17:27;18.70;;;7.30;;
5559;SDS011;2803;47.916;8.074;2023-07-24T04:20:12;18.10;;;8.23;;
5559;SDS011;2803;47.916;8.074;2023-07-24T04:22:56;13.00;;;7.17;;
5559;SDS011;2803;47.916;8.074;2023-07-24T04:25:41;12.80;;;7.37;;
5559;SDS011;2803;47.916;8.074;2023-07-24T04:28:24;12.57;;;7.00;;
5559;SDS011;2803;47.916;8.074;2023-07-24T04:31:10;15.00;;;7.63;;
5559;SDS011;2803;47.916;8.074;2023-07-24T04:36:37;18.90;;;8.10;;
5559;SDS011;2803;47.916;8.074;2023-07-24T04:39:22;15.33;;;7.97;;
5559;SDS011;2803;47.916;8.074;2023-07-24T04:42:07;14.30;;;7.07;;
5559;SDS011;2803;47.916;8.074;2023-07-24T04:44:53;17.10;;;7.37;;
5559;SDS011;2803;47.916;8.074;2023-07-24T04:47:35;14.07;;;7.30;;
5559;SDS011;2803;47.916;8.074;2023-07-24T04:50:22;15.43;;;7.83;;
5559;SDS011;2803;47.916;8.074;2023-07-24T04:53:03;21.90;;;8.43;;
5559;SDS011;2803;47.916;8.074;2023-07-24T04:58:34;17.80;;;8.20;;
5559;SDS011;2803;47.916;8.074;2023-07-24T05:01:21;17.13;;;8.00;;
5559;SDS011;2803;47.916;8.074;2023-07-24T05:04:03;14.80;;;6.93;;
5559;SDS011;2803;47.916;8.074;2023-07-24T05:06:48;15.30;;;7.20;;
5559;SDS011;2803;47.916;8.074;2023-07-24T05:09:30;14.57;;;6.30;;
5559;SDS011;2803;47.916;8.074;2023-07-24T05:12:15;14.60;;;7.40;;
5559;SDS011;2803;47.916;8.074;2023-07-24T05:15:00;13.30;;;6.60;;
5559;SDS011;2803;47.916;8.074;2023-07-24T05:17:47;14.67;;;6.67;;
5559;SDS011;2803;47.916;8.074;2023-07-24T05:20:29;16.47;;;6.33;;
5559;SDS011;2803;47.916;8.074;2023-07-24T05:23:14;12.00;;;6.20;;
5559;SDS011;2803;47.916;8.074;2023-07-24T05:25:56;11.30;;;5.83;;
5559;SDS011;2803;47.916;8.074;2023-07-24T05:28:42;12.90;;;6.30;;
5559;SDS011;2803;47.916;8.074;2023-07-24T05:31:27;15.10;;;5.70;;
5559;SDS011;2803;47.916;8.074;2023-07-24T05:34:13;8.80;;;4.63;;
5559;SDS011;2803;47.916;8.074;2023-07-24T05:36:55;9.80;;;5.07;;
5559;SDS011;2803;47.916;8.074;2023-07-24T05:39:40;15.13;;;5.80;;
5559;SDS011;2803;47.916;8.074;2023-07-24T05:42:22;15.27;;;7.17;;
5559;SDS011;2803;47.916;8.074;2023-07-24T05:47:52;11.70;;;5.83;;
5559;SDS011;2803;47.916;8.074;2023-07-24T05:50:39;19.13;;;6.80;;
5559;SDS011;2803;47.916;8.074;2023-07-24T05:53:22;10.53;;;6.00;;
5559;SDS011;2803;47.916;8.074;2023-07-24T05:56:04;17.53;;;6.20;;
5559;SDS011;2803;47.916;8.074;2023-07-24T06:01:34;10.73;;;5.50;;
5559;SDS011;2803;47.916;8.074;2023-07-24T06:07:05;13.03;;;6.27;;
5559;SDS011;2803;47.916;8.074;2023-07-24T06:09:50;13.17;;;6.20;;
5559;SDS011;2803;47.916;8.074;2023-07-24T06:12:32;12.00;;;6.10;;
5559;SDS011;2803;47.916;8.074;2023-07-24T06:15:17;10.40;;;5.87;;
5559;SDS011;2803;47.916;8.074;2023-07-24T06:18:02;13.47;;;6.07;;
5559;SDS011;2803;47.916;8.074;2023-07-24T06:20:47;11.70;;;6.30;;
5559;SDS011;2803;47.916;8.074;2023-07-24T06:23:31;15.63;;;6.10;;
5559;SDS011;2803;47.916;8.074;2023-07-24T06:26:16;10.50;;;6.13;;
5559;SDS011;2803;47.916;8.074;2023-07-24T06:28:57;11.13;;;7.37;;
5559;SDS011;2803;47.916;8.074;2023-07-24T06:31:42;11.40;;;6.70;;
5559;SDS011;2803;47.916;8.074;2023-07-24T06:34:27;9.77;;;5.70;;
5559;SDS011;2803;47.916;8.074;2023-07-24T06:37:09;10.80;;;6.03;;
5559;SDS011;2803;47.916;8.074;2023-07-24T06:42:40;8.10;;;4.80;;
5559;SDS011;2803;47.916;8.074;2023-07-24T06:45:25;10.13;;;5.37;;
5559;SDS011;2803;47.916;8.074;2023-07-24T06:48:10;12.37;;;6.50;;
5559;SDS011;2803;47.916;8.074;2023-07-24T06:50:55;9.10;;;6.03;;
5559;SDS011;2803;47.916;8.074;2023-07-24T06:53:40;10.20;;;5.83;;
5559;SDS011;2803;47.916;8.074;2023-07-24T06:56:26;9.27;;;5.30;;
5559;SDS011;2803;47.916;8.074;2023-07-24T06:59:08;7.13;;;4.83;;
5559;SDS011;2803;47.916;8.074;2023-07-24T07:01:52;12.40;;;5.53;;
5559;SDS011;2803;47.916;8.074;2023-07-24T07:07:07;8.80;;;5.27;;
5559;SDS011;2803;47.916;8.074;2023-07-24T07:09:35;13.23;;;5.37;;
5559;SDS011;2803;47.916;8.074;2023-07-24T07:12:03;11.50;;;4.87;;
5559;SDS011;2803;47.916;8.074;2023-07-24T07:14:30;7.93;;;4.73;;
5559;SDS011;2803;47.916;8.074;2023-07-24T07:16:56;9.57;;;5.00;;
5559;SDS011;2803;47.916;8.074;2023-07-24T07:19:23;9.07;;;4.90;;
5559;SDS011;2803;47.916;8.074;2023-07-24T07:21:50;12.03;;;5.03;;
5559;SDS011;2803;47.916;8.074;2023-07-24T07:24:17;8.50;;;4.20;;
5559;SDS011;2803;47.916;8.074;2023-07-24T07:26:45;7.87;;;4.80;;
5559;SDS011;2803;47.916;8.074;2023-07-24T07:29:13;10.10;;;4.73;;
5559;SDS011;2803;47.916;8.074;2023-07-24T07:31:40;10.13;;;4.30;;
5559;SDS011;2803;47.916;8.074;2023-07-24T07:34:07;10.03;;;5.10;;
5559;SDS011;2803;47.916;8.074;2023-07-24T07:36:35;10.67;;;5.20;;
5559;SDS011;2803;47.916;8.074;2023-07-24T07:39:02;9.17;;;5.17;;
5559;SDS011;2803;47.916;8.074;2023-07-24T07:41:29;10.73;;;4.93;;
5559;SDS011;2803;47.916;8.074;2023-07-24T07:43:56;8.70;;;5.33;;
5559;SDS011;2803;47.916;8.074;2023-07-24T07:46:24;8.63;;;5.70;;
5559;SDS011;2803;47.916;8.074;2023-07-24T07:48:51;8.53;;;4.67;;
5559;SDS011;2803;47.916;8.074;2023-07-24T07:51:18;6.50;;;4.40;;
5559;SDS011;2803;47.916;8.074;2023-07-24T07:53:44;8.80;;;5.03;;
5559;SDS011;2803;47.916;8.074;2023-07-24T07:56:11;6.53;;;4.60;;
5559;SDS011;2803;47.916;8.074;2023-07-24T07:58:38;7.63;;;5.13;;
5559;SDS011;2803;47.916;8.074;2023-07-24T08:01:04;10.87;;;5.47;;
5559;SDS011;2803;47.916;8.074;2023-07-24T08:03:32;8.50;;;5.07;;
5559;SDS011;2803;47.916;8.074;2023-07-24T08:06:00;10.13;;;5.43;;
5559;SDS011;2803;47.916;8.074;2023-07-24T08:08:26;9.50;;;5.30;;
5559;SDS011;2803;47.916;8.074;2023-07-24T08:10:53;7.13;;;4.17;;
5559;SDS011;2803;47.916;8.074;2023-07-24T08:13:20;8.00;;;5.17;;
5559;SDS011;2803;47.916;8.074;2023-07-24T08:15:46;10.60;;;5.53;;
5559;SDS011;2803;47.916;8.074;2023-07-24T08:18:13;8.07;;;5.30;;
5559;SDS011;2803;47.916;8.074;2023-07-24T08:20:41;10.93;;;6.00;;
5559;SDS011;2803;47.916;8.074;2023-07-24T08:23:07;15.50;;;6.80;;
5559;SDS011;2803;47.916;8.074;2023-07-24T08:25:34;18.83;;;6.43;;
5559;SDS011;2803;47.916;8.074;2023-07-24T08:28:00;15.00;;;6.10;;
5559;SDS011;2803;47.916;8.074;2023-07-24T08:30:27;15.60;;;5.70;;
5559;SDS011;2803;47.916;8.074;2023-07-24T08:32:54;12.00;;;5.33;;
5559;SDS011;2803;47.916;8.074;2023-07-24T08:35:22;11.10;;;5.60;;
5559;SDS011;2803;47.916;8.074;2023-07-24T08:37:49;11.47;;;6.27;;
5559;SDS011;2803;47.916;8.074;2023-07-24T08:40:16;11.67;;;5.83;;
5559;SDS011;2803;47.916;8.074;2023-07-24T08:42:43;13.23;;;6.17;;
5559;SDS011;2803;47.916;8.074;2023-07-24T08:45:11;7.03;;;4.80;;
5559;SDS011;2803;47.916;8.074;2023-07-24T08:47:39;10.87;;;5.60;;
5559;SDS011;2803;47.916;8.074;2023-07-24T08:50:08;12.07;;;5.93;;
5559;SDS011;2803;47.916;8.074;2023-07-24T08:52:36;8.60;;;5.40;;
5559;SDS011;2803;47.916;8.074;2023-07-24T08:55:04;7.97;;;4.90;;
5559;SDS011;2803;47.916;8.074;2023-07-24T08:57:31;11.20;;;5.83;;
5559;SDS011;2803;47.916;8.074;2023-07-24T08:59:58;16.53;;;6.53;;
5559;SDS011;2803;47.916;8.074;2023-07-24T09:02:29;9.20;;;5.20;;
5559;SDS011;2803;47.916;8.074;2023-07-24T09:04:56;11.27;;;5.97;;
5559;SDS011;2803;47.916;8.074;2023-07-24T09:07:22;12.40;;;6.20;;
5559;SDS011;2803;47.916;8.074;2023-07-24T09:09:49;10.80;;;5.60;;
5559;SDS011;2803;47.916;8.074;2023-07-24T09:12:17;9.03;;;6.00;;
5559;SDS011;2803;47.916;8.074;2023-07-24T09:14:44;13.53;;;6.37;;
5559;SDS011;2803;47.916;8.074;2023-07-24T09:17:10;10.40;;;6.10;;
5559;SDS011;2803;47.916;8.074;2023-07-24T09:19:38;14.40;;;5.40;;
5559;SDS011;2803;47.916;8.074;2023-07-24T09:22:09;11.20;;;5.90;;
5559;SDS011;2803;47.916;8.074;2023-07-24T09:24:37;12.33;;;5.97;;
5559;SDS011;2803;47.916;8.074;2023-07-24T09:27:04;11.53;;;5.40;;
5559;SDS011;2803;47.916;8.074;2023-07-24T09:29:33;12.20;;;6.07;;
5559;SDS011;2803;47.916;8.074;2023-07-24T09:32:00;16.23;;;7.33;;
5559;SDS011;2803;47.916;8.074;2023-07-24T09:34:27;22.40;;;7.27;;
5559;SDS011;2803;47.916;8.074;2023-07-24T09:36:53;12.07;;;6.53;;
5559;SDS011;2803;47.916;8.074;2023-07-24T09:39:22;13.30;;;5.20;;
5559;SDS011;2803;47.916;8.074;2023-07-24T09:41:49;18.93;;;4.13;;
5559;SDS011;2803;47.916;8.074;2023-07-24T09:44:16;6.27;;;3.00;;
5559;SDS011;2803;47.916;8.074;2023-07-24T09:46:44;7.40;;;2.50;;
5559;SDS011;2803;47.916;8.074;2023-07-24T09:49:11;10.47;;;3.67;;
5559;SDS011;2803;47.916;8.074;2023-07-24T09:51:38;8.20;;;2.80;;
5559;SDS011;2803;47.916;8.074;2023-07-24T09:54:06;9.00;;;2.60;;
5559;SDS011;2803;47.916;8.074;2023-07-24T09:56:38;5.70;;;2.90;;
5559;SDS011;2803;47.916;8.074;2023-07-24T09:59:07;4.10;;;2.33;;
5559;SDS011;2803;47.916;8.074;2023-07-24T10:01:36;2.83;;;1.60;;
5559;SDS011;2803;47.916;8.074;2023-07-24T10:04:05;3.13;;;1.57;;
5559;SDS011;2803;47.916;8.074;2023-07-24T10:06:33;3.27;;;1.50;;
5559;SDS011;2803;47.916;8.074;2023-07-24T10:08:59;3.80;;;1.53;;
5559;SDS011;2803;47.916;8.074;2023-07-24T10:11:27;7.50;;;2.07;;
5559;SDS011;2803;47.916;8.074;2023-07-24T10:13:54;6.83;;;1.90;;
5559;SDS011;2803;47.916;8.074;2023-07-24T10:16:21;6.00;;;1.83;;
5559;SDS011;2803;47.916;8.074;2023-07-24T10:18:48;3.50;;;2.30;;
5559;SDS011;2803;47.916;8.074;2023-07-24T10:21:16;6.20;;;2.20;;
5559;SDS011;2803;47.916;8.074;2023-07-24T10:23:43;4.50;;;2.00;;
5559;SDS011;2803;47.916;8.074;2023-07-24T10:26:11;2.87;;;1.70;;
5559;SDS011;2803;47.916;8.074;2023-07-24T10:28:39;3.87;;;2.00;;
5559;SDS011;2803;47.916;8.074;2023-07-24T10:31:07;5.07;;;1.90;;
5559;SDS011;2803;47.916;8.074;2023-07-24T10:33:44;3.37;;;1.73;;
5559;SDS011;2803;47.916;8.074;2023-07-24T10:36:11;9.00;;;2.63;;
5559;SDS011;2803;47.916;8.074;2023-07-24T10:38:41;4.80;;;2.60;;
5559;SDS011;2803;47.916;8.074;2023-07-24T10:41:09;6.80;;;2.20;;
5559;SDS011;2803;47.916;8.074;2023-07-24T10:43:40;5.37;;;2.10;;
5559;SDS011;2803;47.916;8.074;2023-07-24T10:46:07;8.73;;;3.77;;
5559;SDS011;2803;47.916;8.074;2023-07-24T10:48:34;10.87;;;2.87;;
5559;SDS011;2803;47.916;8.074;2023-07-24T10:51:05;6.50;;;2.83;;
5559;SDS011;2803;47.916;8.074;2023-07-24T10:53:34;5.47;;;2.50;;
5559;SDS011;2803;47.916;8.074;2023-07-24T10:56:02;6.13;;;2.80;;
5559;SDS011;2803;47.916;8.074;2023-07-24T10:58:29;4.83;;;2.63;;
5559;SDS011;2803;47.916;8.074;2023-07-24T11:00:56;8.20;;;2.87;;
5559;SDS011;2803;47.916;8.074;2023-07-24T11:03:24;3.57;;;2.50;;
5559;SDS011;2803;47.916;8.074;2023-07-24T11:05:51;4.30;;;2.80;;
5559;SDS011;2803;47.916;8.074;2023-07-24T11:08:19;3.53;;;2.13;;
5559;SDS011;2803;47.916;8.074;2023-07-24T11:10:47;11.80;;;3.10;;
5559;SDS011;2803;47.916;8.074;2023-07-24T11:13:15;8.73;;;4.10;;
5559;SDS011;2803;47.916;8.074;2023-07-24T11:15:42;7.20;;;3.50;;
5559;SDS011;2803;47.916;8.074;2023-07-24T11:18:08;4.40;;;3.20;;
5559;SDS011;2803;47.916;8.074;2023-07-24T11:20:36;5.17;;;2.80;;
5559;SDS011;2803;47.916;8.074;2023-07-24T11:23:04;8.13;;;3.17;;
5559;SDS011;2803;47.916;8.074;2023-07-24T11:25:32;5.87;;;3.13;;
5559;SDS011;2803;47.916;8.074;2023-07-24T11:27:59;5.30;;;3.07;;
5559;SDS011;2803;47.916;8.074;2023-07-24T11:30:27;4.87;;;2.60;;
5559;SDS011;2803;47.916;8.074;2023-07-24T11:32:54;5.50;;;2.73;;
5559;SDS011;2803;47.916;8.074;2023-07-24T11:35:22;4.57;;;2.90;;
5559;SDS011;2803;47.916;8.074;2023-07-24T11:37:50;5.10;;;2.83;;
5559;SDS011;2803;47.916;8.074;2023-07-24T11:40:17;3.63;;;2.17;;
5559;SDS011;2803;47.916;8.074;2023-07-24T11:42:45;3.17;;;2.17;;
5559;SDS011;2803;47.916;8.074;2023-07-24T11:45:13;3.30;;;2.53;;
5559;SDS011;2803;47.916;8.074;2023-07-24T11:47:43;5.40;;;2.83;;
5559;SDS011;2803;47.916;8.074;2023-07-24T11:50:11;4.83;;;2.03;;
5559;SDS011;2803;47.916;8.074;2023-07-24T11:52:39;3.23;;;2.70;;
5559;SDS011;2803;47.916;8.074;2023-07-24T11:55:08;2.43;;;2.10;;
5559;SDS011;2803;47.916;8.074;2023-07-24T11:57:35;2.97;;;2.13;;
5559;SDS011;2803;47.916;8.074;2023-07-24T12:00:02;3.40;;;2.40;;
5559;SDS011;2803;47.916;8.074;2023-07-24T12:02:31;3.90;;;2.40;;
5559;SDS011;2803;47.916;8.074;2023-07-24T12:05:00;3.50;;;2.03;;
5559;SDS011;2803;47.916;8.074;2023-07-24T12:07:29;3.30;;;2.03;;
5559;SDS011;2803;47.916;8.074;2023-07-24T12:09:57;2.33;;;2.00;;
5559;SDS011;2803;47.916;8.074;2023-07-24T12:12:25;3.40;;;2.13;;
5559;SDS011;2803;47.916;8.074;2023-07-24T12:14:52;3.10;;;2.03;;
5559;SDS011;2803;47.916;8.074;2023-07-24T12:17:18;3.40;;;2.67;;
5559;SDS011;2803;47.916;8.074;2023-07-24T12:19:46;2.53;;;1.97;;
5559;SDS011;2803;47.916;8.074;2023-07-24T12:22:14;3.30;;;2.43;;
5559;SDS011;2803;47.916;8.074;2023-07-24T12:24:41;4.00;;;2.20;;
5559;SDS011;2803;47.916;8.074;2023-07-24T12:27:07;3.30;;;2.30;;
5559;SDS011;2803;47.916;8.074;2023-07-24T12:29:34;2.73;;;2.10;;
5559;SDS011;2803;47.916;8.074;2023-07-24T12:32:01;6.50;;;2.53;;
5559;SDS011;2803;47.916;8.074;2023-07-24T12:34:28;4.00;;;2.70;;
5559;SDS011;2803;47.916;8.074;2023-07-24T12:36:54;3.50;;;2.60;;
5559;SDS011;2803;47.916;8.074;2023-07-24T12:39:22;3.63;;;2.70;;
5559;SDS011;2803;47.916;8.074;2023-07-24T12:41:49;4.30;;;2.60;;
5559;SDS011;2803;47.916;8.074;2023-07-24T12:44:15;3.90;;;2.83;;
5559;SDS011;2803;47.916;8.074;2023-07-24T12:46:42;3.60;;;2.50;;
5559;SDS011;2803;47.916;8.074;2023-07-24T12:49:09;3.13;;;2.53;;
5559;SDS011;2803;47.916;8.074;2023-07-24T12:51:36;7.50;;;2.90;;
5559;SDS011;2803;47.916;8.074;2023-07-24T12:54:02;4.70;;;2.60;;
5559;SDS011;2803;47.916;8.074;2023-07-24T12:56:30;4.80;;;3.50;;
5559;SDS011;2803;47.916;8.074;2023-07-24T12:58:57;7.13;;;3.10;;
5559;SDS011;2803;47.916;8.074;2023-07-24T13:01:23;7.20;;;2.40;;
5559;SDS011;2803;47.916;8.074;2023-07-24T13:03:52;6.70;;;3.07;;
5559;SDS011;2803;47.916;8.074;2023-07-24T13:06:19;4.57;;;3.20;;
5559;SDS011;2803;47.916;8.074;2023-07-24T13:08:45;6.70;;;3.17;;
5559;SDS011;2803;47.916;8.074;2023-07-24T13:11:12;5.43;;;3.23;;
5559;SDS011;2803;47.916;8.074;2023-07-24T13:13:40;7.53;;;3.50;;
5559;SDS011;2803;47.916;8.074;2023-07-24T13:16:06;5.00;;;3.07;;
5559;SDS011;2803;47.916;8.074;2023-07-24T13:18:33;10.13;;;3.60;;
5559;SDS011;2803;47.916;8.074;2023-07-24T13:21:00;6.13;;;3.27;;
5559;SDS011;2803;47.916;8.074;2023-07-24T13:23:26;3.47;;;2.70;;
5559;SDS011;2803;47.916;8.074;2023-07-24T13:25:53;6.73;;;3.63;;
5559;SDS011;2803;47.916;8.074;2023-07-24T13:28:19;9.93;;;3.90;;
5559;SDS011;2803;47.916;8.074;2023-07-24T13:30:47;8.67;;;3.90;;
5559;SDS011;2803;47.916;8.074;2023-07-24T13:33:14;8.17;;;4.07;;
5559;SDS011;2803;47.916;8.074;2023-07-24T13:35:41;8.50;;;4.30;;
5559;SDS011;2803;47.916;8.074;2023-07-24T13:38:07;11.80;;;3.97;;
5559;SDS011;2803;47.916;8.074;2023-07-24T13:40:34;6.67;;;3.90;;
5559;SDS011;2803;47.916;8.074;2023-07-24T13:43:01;7.17;;;4.70;;
5559;SDS011;2803;47.916;8.074;2023-07-24T13:45:28;10.23;;;4.10;;
5559;SDS011;2803;47.916;8.074;2023-07-24T13:47:57;7.30;;;4.60;;
5559;SDS011;2803;47.916;8.074;2023-07-24T13:50:24;6.03;;;4.23;;
5559;SDS011;2803;47.916;8.074;2023-07-24T13:52:50;9.33;;;4.93;;
5559;SDS011;2803;47.916;8.074;2023-07-24T13:55:17;7.70;;;4.40;;
5559;SDS011;2803;47.916;8.074;2023-07-24T13:57:44;8.83;;;4.90;;
5559;SDS011;2803;47.916;8.074;2023-07-24T14:00:11;7.77;;;4.37;;
5559;SDS011;2803;47.916;8.074;2023-07-24T14:02:38;8.60;;;5.30;;
5559;SDS011;2803;47.916;8.074;2023-07-24T14:05:06;6.80;;;4.90;;
5559;SDS011;2803;47.916;8.074;2023-07-24T14:07:34;9.67;;;4.73;;
5559;SDS011;2803;47.916;8.074;2023-07-24T14:10:00;9.87;;;5.37;;
5559;SDS011;2803;47.916;8.074;2023-07-24T14:12:27;6.30;;;4.70;;
5559;SDS011;2803;47.916;8.074;2023-07-24T14:14:53;8.93;;;4.83;;
5559;SDS011;2803;47.916;8.074;2023-07-24T14:17:21;9.97;;;5.20;;
5559;SDS011;2803;47.916;8.074;2023-07-24T14:19:48;9.50;;;5.23;;
5559;SDS011;2803;47.916;8.074;2023-07-24T14:22:16;10.90;;;4.77;;
5559;SDS011;2803;47.916;8.074;2023-07-24T14:24:42;10.73;;;5.97;;
5559;SDS011;2803;47.916;8.074;2023-07-24T14:27:09;12.07;;;5.90;;
5559;SDS011;2803;47.916;8.074;2023-07-24T14:29:36;9.90;;;5.20;;
5559;SDS011;2803;47.916;8.074;2023-07-24T14:32:03;9.23;;;5.13;;
5559;SDS011;2803;47.916;8.074;2023-07-24T14:34:31;8.10;;;5.10;;
5559;SDS011;2803;47.916;8.074;2023-07-24T14:36:57;10.33;;;4.50;;
5559;SDS011;2803;47.916;8.074;2023-07-24T14:39:25;13.90;;;4.77;;
5559;SDS011;2803;47.916;8.074;2023-07-24T14:41:52;9.37;;;5.07;;
5559;SDS011;2803;47.916;8.074;2023-07-24T14:44:19;8.40;;;5.20;;
5559;SDS011;2803;47.916;8.074;2023-07-24T14:46:45;8.27;;;4.77;;
5559;SDS011;2803;47.916;8.074;2023-07-24T14:49:12;8.23;;;5.07;;
5559;SDS011;2803;47.916;8.074;2023-07-24T14:51:39;11.30;;;6.10;;
5559;SDS011;2803;47.916;8.074;2023-07-24T14:54:05;10.50;;;4.70;;
5559;SDS011;2803;47.916;8.074;2023-07-24T14:56:34;9.10;;;5.50;;
5559;SDS011;2803;47.916;8.074;2023-07-24T14:59:00;11.73;;;5.70;;
5559;SDS011;2803;47.916;8.074;2023-07-24T15:01:27;19.73;;;6.80;;
5559;SDS011;2803;47.916;8.074;2023-07-24T15:03:54;11.70;;;6.20;;
5559;SDS011;2803;47.916;8.074;2023-07-24T15:06:22;8.37;;;4.87;;
5559;SDS011;2803;47.916;8.074;2023-07-24T15:08:49;9.83;;;5.70;;
5559;SDS011;2803;47.916;8.074;2023-07-24T15:11:18;8.10;;;5.13;;
5559;SDS011;2803;47.916;8.074;2023-07-24T15:13:47;9.80;;;5.83;;
5559;SDS011;2803;47.916;8.074;2023-07-24T15:16:14;6.47;;;4.57;;
5559;SDS011;2803;47.916;8.074;2023-07-24T15:18:41;7.20;;;4.77;;
5559;SDS011;2803;47.916;8.074;2023-07-24T15:21:08;8.80;;;5.30;;
5559;SDS011;2803;47.916;8.074;2023-07-24T15:23:35;8.90;;;4.60;;
5559;SDS011;2803;47.916;8.074;2023-07-24T15:26:02;5.30;;;3.83;;
5559;SDS011;2803;47.916;8.074;2023-07-24T15:28:30;6.47;;;3.90;;
5559;SDS011;2803;47.916;8.074;2023-07-24T15:30:58;7.30;;;4.43;;
5559;SDS011;2803;47.916;8.074;2023-07-24T15:33:25;5.20;;;4.10;;
5559;SDS011;2803;47.916;8.074;2023-07-24T15:35:53;8.63;;;4.10;;
5559;SDS011;2803;47.916;8.074;2023-07-24T15:38:20;10.60;;;3.90;;
5559;SDS011;2803;47.916;8.074;2023-07-24T15:40:47;5.70;;;4.03;;
5559;SDS011;2803;47.916;8.074;2023-07-24T15:43:13;4.37;;;3.13;;
5559;SDS011;2803;47.916;8.074;2023-07-24T15:45:41;5.33;;;3.13;;
5559;SDS011;2803;47.916;8.074;2023-07-24T15:48:09;6.83;;;3.53;;
5559;SDS011;2803;47.916;8.074;2023-07-24T15:50:35;3.80;;;3.27;;
5559;SDS011;2803;47.916;8.074;2023-07-24T15:53:02;8.57;;;3.30;;
5559;SDS011;2803;47.916;8.074;2023-07-24T15:55:28;4.60;;;3.70;;
5559;SDS011;2803;47.916;8.074;2023-07-24T15:57:55;3.30;;;2.67;;
5559;SDS011;2803;47.916;8.074;2023-07-24T16:00:24;4.63;;;3.90;;
5559;SDS011;2803;47.916;8.074;2023-07-24T16:02:50;6.40;;;3.77;;
5559;SDS011;2803;47.916;8.074;2023-07-24T16:05:19;5.93;;;4.33;;
5559;SDS011;2803;47.916;8.074;2023-07-24T16:07:47;5.73;;;3.57;;
5559;SDS011;2803;47.916;8.074;2023-07-24T16:10:15;8.40;;;4.20;;
5559;SDS011;2803;47.916;8.074;2023-07-24T16:12:42;9.27;;;4.00;;
5559;SDS011;2803;47.916;8.074;2023-07-24T16:15:09;7.93;;;4.20;;
5559;SDS011;2803;47.916;8.074;2023-07-24T16:17:37;6.13;;;4.10;;
5559;SDS011;2803;47.916;8.074;2023-07-24T16:20:05;6.00;;;4.10;;
5559;SDS011;2803;47.916;8.074;2023-07-24T16:22:33;8.70;;;4.27;;